Time;durP1;ratioP1;P1;durP2;ratioP2;P2;SDS_P1;SDS_P2;PMS_P1;PMS_P2;Temp;Humidity;BMP_temperature;BMP_pressure;BME280_temperature;BME280_humidity;BME280_pressure;Samples;Min_cycle;Max_cycle;Signal;HPM_P1;HPM_P2
2022/03/30 00:01:57;;;;;;;16.25;8.07;;;;;;;17.98;25.34;97461.00;4493423;31;20104;-80
2022/03/30 00:04:23;;;;;;;19.10;8.98;;;;;;;17.91;25.42;97462.66;4494379;31;20425;-81
2022/03/30 00:06:48;;;;;;;17.35;8.80;;;;;;;17.97;25.39;97458.50;4493102;31;20473;-81
2022/03/30 00:09:14;;;;;;;18.67;9.35;;;;;;;17.92;25.44;97461.63;4488863;31;20135;-82
2022/03/30 00:11:39;;;;;;;18.40;9.02;;;;;;;17.96;25.38;97462.16;4487964;31;20100;-80
2022/03/30 00:14:05;;;;;;;16.80;8.57;;;;;;;18.03;25.43;97468.50;4492267;31;20355;-81
2022/03/30 00:16:31;;;;;;;18.92;9.48;;;;;;;17.94;25.60;97472.97;4487593;31;20088;-81
2022/03/30 00:18:56;;;;;;;17.25;8.43;;;;;;;17.97;25.53;97469.16;4487541;31;20128;-81
2022/03/30 00:21:21;;;;;;;19.83;9.27;;;;;;;18.05;25.54;97463.84;4487524;31;20081;-80
2022/03/30 00:23:47;;;;;;;20.05;9.02;;;;;;;18.06;25.53;97463.69;4487492;31;20169;-80
2022/03/30 00:26:13;;;;;;;18.80;8.45;;;;;;;18.03;25.53;97463.19;4485044;32;20143;-80
2022/03/30 00:28:38;;;;;;;17.02;8.80;;;;;;;17.87;25.74;97463.97;4485318;32;20127;-80
2022/03/30 00:31:04;;;;;;;18.42;8.98;;;;;;;17.78;25.87;97470.25;4486962;31;20179;-80
2022/03/30 00:33:29;;;;;;;18.25;8.75;;;;;;;17.66;26.19;97473.19;4502351;31;20087;-80
2022/03/30 00:35:55;;;;;;;16.60;8.55;;;;;;;17.52;26.17;97464.97;4502035;31;20084;-80
2022/03/30 00:38:20;;;;;;;20.75;9.00;;;;;;;17.44;26.19;97469.28;4502151;31;20156;-80
2022/03/30 00:40:46;;;;;;;16.62;8.55;;;;;;;17.62;26.19;97463.84;4501864;31;20096;-80
2022/03/30 00:43:12;;;;;;;20.12;10.20;;;;;;;17.79;26.08;97456.75;4487465;31;20140;-80
2022/03/30 00:45:38;;;;;;;16.50;8.88;;;;;;;17.91;26.24;97459.16;4474905;31;20136;-80
2022/03/30 00:48:04;;;;;;;20.25;9.45;;;;;;;17.62;26.52;97463.84;4487444;31;20109;-80
2022/03/30 00:50:29;;;;;;;18.30;9.32;;;;;;;17.71;26.41;97464.69;4491195;31;20374;-81
2022/03/30 00:52:56;;;;;;;17.00;9.15;;;;;;;17.65;26.57;97466.22;4503001;31;20113;-81
2022/03/30 00:55:22;;;;;;;22.37;9.87;;;;;;;17.67;26.51;97461.56;4503099;31;20424;-82
2022/03/30 00:57:49;;;;;;;17.77;9.15;;;;;;;17.60;26.71;97457.84;4488709;31;20183;-82
2022/03/30 01:00:16;;;;;;;21.00;9.48;;;;;;;17.63;26.52;97462.84;4488567;31;20095;-80
2022/03/30 01:02:45;;;;;;;19.77;9.02;;;;;;;17.69;26.49;97459.56;4502529;31;20183;-80
2022/03/30 01:05:11;;;;;;;19.05;9.40;;;;;;;17.43;26.85;97454.28;4488579;31;20427;-80
2022/03/30 01:07:36;;;;;;;18.50;9.15;;;;;;;17.58;26.74;97457.19;4487689;31;20515;-81
2022/03/30 01:10:06;;;;;;;19.05;8.93;;;;;;;17.62;26.68;97453.22;4480998;31;20102;-81
2022/03/30 01:12:32;;;;;;;17.27;9.25;;;;;;;17.67;26.58;97444.72;4487063;31;20096;-81
2022/03/30 01:14:59;;;;;;;17.80;9.00;;;;;;;17.72;26.70;97437.09;4485906;32;20398;-81
2022/03/30 01:17:24;;;;;;;16.98;8.57;;;;;;;17.42;26.78;97441.13;4480908;32;20706;-81
2022/03/30 01:19:50;;;;;;;20.65;9.48;;;;;;;17.59;26.54;97434.88;4472816;32;20118;-81
2022/03/30 01:22:16;;;;;;;17.08;8.48;;;;;;;17.48;26.66;97429.84;4472773;32;20099;-80
2022/03/30 01:24:41;;;;;;;17.92;8.93;;;;;;;17.47;26.75;97431.66;4472404;32;20111;-81
2022/03/30 01:27:07;;;;;;;17.52;9.13;;;;;;;17.41;26.89;97429.66;4486678;32;20399;-81
2022/03/30 01:32:27;;;;;;;19.45;10.00;;;;;;;17.25;27.31;97424.28;4502545;31;20118;-80
2022/03/30 01:35:00;;;;;;;21.20;9.50;;;;;;;17.28;27.25;97421.28;4502462;31;20084;-80
2022/03/30 01:37:28;;;;;;;18.60;9.63;;;;;;;17.37;27.22;97424.81;4487945;31;20105;-80
2022/03/30 01:39:54;;;;;;;;;;;;;;;17.31;27.25;97415.66;4488651;31;20168;-81
2022/03/30 01:42:19;;;;;;;19.80;8.98;;;;;;;17.33;27.67;97418.97;4488054;31;19975;-81
2022/03/30 01:44:45;;;;;;;20.30;8.68;;;;;;;17.34;27.75;97410.00;4502357;31;20148;-81
2022/03/30 01:47:10;;;;;;;18.62;9.18;;;;;;;17.30;27.90;97398.00;4487879;31;20138;-81
2022/03/30 01:49:36;;;;;;;20.23;9.40;;;;;;;17.30;28.03;97403.31;4490620;31;20454;-81
2022/03/30 01:52:03;;;;;;;17.83;8.90;;;;;;;17.25;28.14;97401.16;4473142;32;20084;-81
2022/03/30 01:54:28;;;;;;;16.90;8.38;;;;;;;17.24;28.26;97402.13;4472190;32;20084;-80
2022/03/30 01:56:55;;;;;;;17.77;9.00;;;;;;;17.20;28.41;97397.28;4472073;32;20101;-80
2022/03/30 01:59:22;;;;;;;19.03;9.43;;;;;;;17.23;28.56;97392.50;4459517;32;20165;-81
2022/03/30 02:01:48;;;;;;;19.48;9.32;;;;;;;17.21;28.55;97393.63;4486263;32;20104;-80
2022/03/30 02:04:14;;;;;;;21.50;9.40;;;;;;;17.17;28.59;97400.25;4472544;32;20087;-80
2022/03/30 02:06:40;;;;;;;18.73;9.48;;;;;;;17.15;28.59;97392.44;4486632;32;20484;-82
2022/03/30 02:09:06;;;;;;;20.52;9.32;;;;;;;17.17;28.54;97386.97;4482861;31;20179;-81
2022/03/30 02:11:32;;;;;;;21.95;9.13;;;;;;;17.19;28.63;97390.28;4502195;31;20088;-81
2022/03/30 02:13:58;;;;;;;20.60;9.18;;;;;;;17.07;28.96;97381.75;4501981;31;20077;-80
2022/03/30 02:16:24;;;;;;;20.23;9.02;;;;;;;17.18;28.73;97391.31;4502139;31;20368;-80
2022/03/30 02:18:50;;;;;;;19.05;9.48;;;;;;;17.18;28.85;97385.97;4502644;31;20091;-80
2022/03/30 02:21:15;;;;;;;21.52;9.43;;;;;;;17.14;28.97;97387.28;4489541;31;20349;-80
2022/03/30 02:23:41;;;;;;;20.77;9.30;;;;;;;16.95;29.07;97389.19;4503763;31;20084;-80
2022/03/30 02:26:07;;;;;;;18.00;8.90;;;;;;;16.98;29.10;97386.22;4489444;31;20132;-80
2022/03/30 02:28:32;;;;;;;19.67;9.07;;;;;;;16.98;29.34;97375.59;4480232;32;20123;-81
2022/03/30 02:30:58;;;;;;;19.00;8.98;;;;;;;16.97;29.41;97384.53;4487946;32;20440;-80
2022/03/30 02:33:24;;;;;;;18.62;9.02;;;;;;;16.94;29.58;97384.88;4460690;32;20394;-81
2022/03/30 02:35:50;;;;;;;19.85;9.20;;;;;;;16.94;29.61;97381.38;4460936;32;20472;-81
2022/03/30 02:38:16;;;;;;;19.55;9.20;;;;;;;16.88;29.70;97378.37;4473847;32;20144;-80
2022/03/30 02:40:41;;;;;;;20.02;9.45;;;;;;;16.85;29.74;97373.34;4488143;32;20419;-80
2022/03/30 02:43:06;;;;;;;19.33;9.65;;;;;;;16.87;29.64;97375.84;4473542;32;20131;-81
2022/03/30 02:45:32;;;;;;;18.08;9.57;;;;;;;16.82;29.63;97383.47;4487905;32;20104;-79
2022/03/30 02:50:44;;;;;;;21.33;9.35;;;;;;;16.73;29.60;97374.59;4503819;31;20110;-80
2022/03/30 02:53:10;;;;;;;17.70;8.95;;;;;;;16.70;29.60;97369.56;4503636;31;20084;-80
2022/03/30 02:55:35;;;;;;;18.83;9.35;;;;;;;16.71;29.58;97377.41;4503671;31;20084;-80
2022/03/30 02:58:01;;;;;;;20.27;9.88;;;;;;;16.71;29.43;97373.91;4503650;31;20075;-79
2022/03/30 03:00:28;;;;;;;20.50;9.50;;;;;;;16.64;29.39;97372.88;4489388;31;20107;-80
2022/03/30 03:02:53;;;;;;;18.65;9.23;;;;;;;16.61;29.56;97375.81;4503316;31;20080;-80
2022/03/30 03:05:18;;;;;;;21.05;9.88;;;;;;;16.59;29.74;97369.81;4486864;31;20105;-81
2022/03/30 03:07:44;;;;;;;18.40;9.77;;;;;;;16.52;29.88;97374.94;4503181;31;20088;-81
2022/03/30 03:10:09;;;;;;;18.20;8.90;;;;;;;16.63;29.80;97379.16;4503408;31;20431;-79
2022/03/30 03:12:35;;;;;;;16.67;8.98;;;;;;;16.59;29.98;97373.34;4489224;31;20454;-82
2022/03/30 03:15:00;;;;;;;22.95;9.07;;;;;;;16.58;30.08;97373.50;4503403;31;20092;-82
2022/03/30 03:17:26;;;;;;;20.73;9.77;;;;;;;16.51;30.35;97370.59;4489296;31;20149;-83
2022/03/30 03:19:51;;;;;;;18.48;9.35;;;;;;;16.41;30.62;97368.06;4489231;31;20097;-82
2022/03/30 03:22:16;;;;;;;20.17;9.30;;;;;;;16.39;30.74;97374.53;4503177;31;20118;-82
2022/03/30 03:24:42;;;;;;;19.48;8.68;;;;;;;16.38;30.92;97373.69;4501005;31;20104;-82
2022/03/30 03:27:07;;;;;;;19.90;8.93;;;;;;;16.39;30.99;97377.19;4487346;31;20089;-82
2022/03/30 03:29:33;;;;;;;22.40;8.82;;;;;;;16.36;31.04;97377.47;4487297;31;20076;-81
2022/03/30 03:31:58;;;;;;;17.58;9.23;;;;;;;16.23;31.06;97375.25;4486199;32;20110;-81
2022/03/30 03:34:24;;;;;;;18.20;8.60;;;;;;;16.29;31.06;97383.41;4487415;31;20148;-81
2022/03/30 03:36:49;;;;;;;20.27;9.35;;;;;;;16.26;30.98;97370.47;4486386;32;20148;-81
2022/03/30 03:39:15;;;;;;;19.87;8.95;;;;;;;16.36;30.99;97377.47;4487472;32;20145;-81
2022/03/30 03:41:40;;;;;;;20.60;9.57;;;;;;;16.28;30.98;97375.59;4486321;32;20084;-81
2022/03/30 03:44:06;;;;;;;17.42;8.80;;;;;;;16.25;30.92;97376.75;4487660;31;20141;-81
2022/03/30 03:46:31;;;;;;;18.95;8.43;;;;;;;16.22;30.94;97370.91;4494171;31;20118;-81
2022/03/30 03:48:57;;;;;;;20.98;8.82;;;;;;;16.11;31.27;97372.00;4487318;32;20124;-80
2022/03/30 03:51:23;;;;;;;17.62;8.70;;;;;;;16.09;31.22;97376.63;4487531;31;20343;-81
2022/03/30 03:53:49;;;;;;;19.90;9.88;;;;;;;16.13;31.21;97370.00;4487574;31;20100;-81
2022/03/30 03:56:14;;;;;;;18.77;8.30;;;;;;;16.12;31.34;97382.44;4487504;31;20436;-81
2022/03/30 03:58:40;;;;;;;20.52;8.50;;;;;;;16.09;31.48;97385.41;4486268;32;20110;-80
2022/03/30 04:01:05;;;;;;;19.73;8.38;;;;;;;15.65;32.31;97384.47;4486182;32;20132;-81
2022/03/30 04:03:30;;;;;;;17.83;8.75;;;;;;;15.52;32.43;97382.16;4489210;31;20096;-81
2022/03/30 04:05:56;;;;;;;17.95;8.73;;;;;;;15.50;32.51;97381.50;4502969;31;20127;-82
2022/03/30 04:08:21;;;;;;;17.35;8.93;;;;;;;15.47;32.57;97382.62;4503046;31;20081;-81
2022/03/30 04:10:48;;;;;;;17.00;8.85;;;;;;;15.23;33.06;97385.81;4502902;31;20439;-81
2022/03/30 04:13:13;;;;;;;19.12;9.20;;;;;;;15.17;33.23;97391.72;4502418;31;20535;-81
2022/03/30 04:15:39;;;;;;;19.02;9.07;;;;;;;15.29;33.13;97390.53;4488772;31;20128;-81
2022/03/30 04:18:04;;;;;;;21.45;9.35;;;;;;;15.13;33.42;97393.81;4488632;31;20363;-82
2022/03/30 04:20:30;;;;;;;20.30;8.90;;;;;;;14.99;33.72;97394.31;4503004;31;20095;-82
2022/03/30 04:22:56;;;;;;;20.48;9.50;;;;;;;14.96;33.80;97391.94;4488451;31;20140;-82
2022/03/30 04:25:22;;;;;;;20.05;9.05;;;;;;;14.74;34.28;97395.81;4473228;32;20346;-81
2022/03/30 04:27:49;;;;;;;16.90;8.68;;;;;;;14.90;33.97;97389.88;4487299;32;20088;-82
2022/03/30 04:30:16;;;;;;;19.87;8.98;;;;;;;14.98;34.08;97383.84;4487281;32;20152;-82
2022/03/30 04:32:42;;;;;;;19.33;8.70;;;;;;;15.01;34.08;97381.75;4472969;32;20168;-82
2022/03/30 04:35:09;;;;;;;21.77;9.43;;;;;;;15.06;34.11;97389.25;4472724;32;20108;-82
2022/03/30 04:37:34;;;;;;;18.05;8.98;;;;;;;15.10;34.07;97390.62;4487123;32;20088;-82
2022/03/30 04:39:59;;;;;;;18.08;9.27;;;;;;;15.13;34.07;97385.88;4472873;32;20115;-80
2022/03/30 04:42:25;;;;;;;22.20;8.60;;;;;;;15.17;34.23;97386.41;4485757;31;20084;-80
2022/03/30 04:44:50;;;;;;;19.95;9.23;;;;;;;15.11;34.36;97394.97;4502446;31;20352;-81
2022/03/30 04:47:16;;;;;;;20.45;9.88;;;;;;;15.09;34.15;97399.59;4499222;31;20088;-81
2022/03/30 04:49:42;;;;;;;18.37;8.98;;;;;;;14.98;34.35;97405.06;4493283;31;20432;-80
2022/03/30 04:52:08;;;;;;;19.60;9.30;;;;;;;15.11;34.21;97400.28;4481266;31;20391;-80
2022/03/30 04:54:33;;;;;;;19.80;9.57;;;;;;;15.21;34.00;97402.87;4480711;32;20096;-80
2022/03/30 04:56:59;;;;;;;23.35;9.63;;;;;;;15.36;33.96;97400.56;4486838;32;20371;-81
2022/03/30 04:59:24;;;;;;;21.25;9.82;;;;;;;15.42;33.94;97400.81;4486800;32;20137;-80
2022/03/30 05:01:50;;;;;;;21.02;9.75;;;;;;;15.56;33.92;97398.62;4472300;32;20157;-81
2022/03/30 05:04:15;;;;;;;19.17;9.68;;;;;;;15.54;34.04;97401.44;4486962;31;20127;-81
2022/03/30 05:06:40;;;;;;;19.37;8.82;;;;;;;15.65;33.90;97411.84;4486868;31;20135;-83
2022/03/30 05:09:06;;;;;;;22.05;9.48;;;;;;;15.75;33.80;97409.16;4487044;31;20436;-82
2022/03/30 05:11:31;;;;;;;18.52;9.50;;;;;;;15.81;34.00;97418.34;4477691;31;20104;-82
2022/03/30 05:13:57;;;;;;;20.33;9.55;;;;;;;15.82;34.26;97414.69;4486846;31;20137;-82
2022/03/30 05:16:22;;;;;;;22.13;10.18;;;;;;;15.88;34.16;97412.28;4485771;32;20428;-82
2022/03/30 05:18:47;;;;;;;22.92;9.70;;;;;;;15.91;34.04;97421.75;4485903;32;20136;-81
2022/03/30 05:21:13;;;;;;;22.55;10.05;;;;;;;15.95;34.19;97427.59;4496410;31;20092;-82
2022/03/30 05:23:38;;;;;;;21.58;10.18;;;;;;;16.02;34.43;97428.69;4488073;31;20438;-81
2022/03/30 05:26:04;;;;;;;25.77;10.48;;;;;;;16.06;34.56;97430.03;4502708;31;20102;-80
2022/03/30 05:28:29;;;;;;;24.58;10.20;;;;;;;16.09;34.81;97427.09;4502751;31;20324;-80
2022/03/30 05:30:55;;;;;;;25.33;10.77;;;;;;;16.19;34.62;97427.84;4488358;31;20153;-81
2022/03/30 05:33:21;;;;;;;25.88;10.57;;;;;;;16.26;34.63;97433.37;4502863;31;20114;-81
2022/03/30 05:35:48;;;;;;;22.60;10.65;;;;;;;16.33;34.36;97428.28;4487932;31;20080;-80
2022/03/30 05:38:14;;;;;;;19.87;9.60;;;;;;;16.35;34.01;97432.47;4502415;31;20088;-80
2022/03/30 05:40:40;;;;;;;20.48;9.90;;;;;;;16.42;33.78;97425.53;4478875;32;20191;-79
2022/03/30 05:43:06;;;;;;;21.23;9.35;;;;;;;16.51;32.70;97426.44;4486500;32;20109;-81
2022/03/30 05:45:31;;;;;;;19.10;9.32;;;;;;;16.41;32.43;97433.66;4486790;32;20356;-81
2022/03/30 05:47:56;;;;;;;19.50;9.85;;;;;;;16.29;32.26;97431.25;4486496;32;20116;-80
2022/03/30 05:50:23;;;;;;;20.90;9.35;;;;;;;16.63;31.57;97430.53;4486487;32;20114;-80
2022/03/30 05:52:49;;;;;;;19.83;9.80;;;;;;;16.59;32.05;97425.66;4485963;32;20171;-81
2022/03/30 05:55:14;;;;;;;17.30;9.13;;;;;;;16.71;31.54;97424.44;4486421;32;20085;-81
2022/03/30 05:57:40;;;;;;;18.83;9.45;;;;;;;16.74;31.45;97425.94;4486368;32;20512;-81
2022/03/30 06:00:07;;;;;;;19.15;9.35;;;;;;;16.92;31.23;97426.75;4494394;31;20376;-80
2022/03/30 06:02:32;;;;;;;19.37;9.83;;;;;;;17.01;31.60;97431.13;4455586;31;953123;-81
2022/03/30 06:04:58;;;;;;;21.25;9.60;;;;;;;17.07;31.73;97424.34;4502299;31;20507;-81
2022/03/30 06:07:23;;;;;;;20.80;8.95;;;;;;;17.12;31.70;97426.53;4487654;31;20118;-82
2022/03/30 06:09:49;;;;;;;20.40;10.00;;;;;;;17.21;31.60;97428.22;4502257;31;20104;-82
2022/03/30 06:12:15;;;;;;;23.33;10.55;;;;;;;17.35;31.24;97432.13;4473023;32;20093;-81
2022/03/30 06:14:41;;;;;;;20.98;9.88;;;;;;;17.46;31.04;97435.34;4486398;32;20092;-81
2022/03/30 06:17:07;;;;;;;22.42;9.48;;;;;;;17.65;30.94;97420.09;4489961;31;20110;-81
2022/03/30 06:19:36;;;;;;;19.50;9.73;;;;;;;17.63;31.04;97424.75;4474716;31;20804;-79
2022/03/30 06:22:08;;;;;;;26.02;10.30;;;;;;;17.66;30.71;97425.25;4475414;32;20115;-80
2022/03/30 06:24:38;;;;;;;21.30;10.07;;;;;;;17.82;30.39;97431.63;4459277;32;20115;-81
2022/03/30 06:27:04;;;;;;;23.85;10.55;;;;;;;17.62;30.47;97431.06;4486840;31;20149;-80
2022/03/30 06:29:31;;;;;;;20.90;10.38;;;;;;;17.90;30.43;97430.84;4485300;32;20108;-79
2022/03/30 06:31:57;;;;;;;19.70;10.00;;;;;;;17.87;30.71;97430.16;4486466;31;20134;-80
2022/03/30 06:34:22;;;;;;;22.30;10.45;;;;;;;18.22;30.25;97422.88;4490411;31;20432;-78
2022/03/30 06:36:48;;;;;;;21.23;10.27;;;;;;;18.20;30.32;97429.41;4475958;32;20150;-78
2022/03/30 06:39:14;;;;;;;21.42;10.65;;;;;;;18.27;29.88;97425.91;4485945;32;20080;-79
2022/03/30 06:41:40;;;;;;;25.80;10.60;;;;;;;18.30;29.55;97421.25;4458724;32;20157;-78
2022/03/30 06:44:05;;;;;;;20.45;10.35;;;;;;;18.40;29.57;97433.37;4495404;31;20093;-79
2022/03/30 06:46:33;;;;;;;21.20;10.75;;;;;;;18.45;29.49;97428.41;4501614;31;20439;-80
2022/03/30 06:49:00;;;;;;;23.38;10.73;;;;;;;18.59;29.46;97432.22;4501484;31;20110;-76
2022/03/30 06:51:26;;;;;;;24.40;10.05;;;;;;;18.72;29.43;97441.56;4501706;31;20126;-82
2022/03/30 06:53:51;;;;;;;19.25;9.85;;;;;;;18.74;29.39;97435.06;4498585;31;20515;-78
2022/03/30 06:56:17;;;;;;;20.02;9.98;;;;;;;18.84;29.28;97435.72;4493126;31;20163;-78
2022/03/30 06:58:42;;;;;;;24.33;10.73;;;;;;;18.84;29.40;97434.91;4501590;31;20133;-78
2022/03/30 07:01:08;;;;;;;20.40;10.80;;;;;;;19.04;28.61;97432.69;4473654;31;20088;-78
2022/03/30 07:03:34;;;;;;;23.08;10.60;;;;;;;18.98;28.58;97434.19;4500836;31;20178;-78
2022/03/30 07:06:01;;;;;;;25.48;11.48;;;;;;;18.94;28.81;97440.87;4476354;31;20416;-77
2022/03/30 07:11:10;;;;;;;22.25;11.50;;;;;;;19.12;28.41;97431.81;4490667;31;20148;-79
2022/03/30 07:13:35;;;;;;;26.23;12.27;;;;;;;19.26;28.15;97423.13;4490344;31;20088;-78
2022/03/30 07:16:02;;;;;;;20.35;11.07;;;;;;;19.27;28.26;97429.28;4488009;31;20424;-78
2022/03/30 07:18:27;;;;;;;24.45;11.12;;;;;;;19.26;28.55;97433.81;4487365;31;20096;-78
2022/03/30 07:20:53;;;;;;;20.45;10.73;;;;;;;19.56;28.19;97426.81;4487966;31;20100;-80
2022/03/30 07:23:18;;;;;;;21.62;11.40;;;;;;;19.51;27.90;97431.03;4489878;31;20427;-78
2022/03/30 07:25:44;;;;;;;38.13;14.00;;;;;;;19.70;28.28;97429.78;4479404;31;21748;-78
2022/03/30 07:28:09;;;;;;;25.52;13.38;;;;;;;19.54;27.98;97433.34;4496028;31;20119;-77
2022/03/30 07:30:36;;;;;;;26.42;13.88;;;;;;;19.73;27.95;97430.28;4492474;31;20465;-78
2022/03/30 07:33:02;;;;;;;26.33;13.77;;;;;;;19.61;28.15;97437.00;4491331;31;20083;-78
2022/03/30 07:35:28;;;;;;;33.90;13.95;;;;;;;19.68;28.27;97429.12;4497430;31;20186;-79
2022/03/30 07:37:54;;;;;;;27.83;13.60;;;;;;;19.63;28.41;97418.97;4476115;31;20128;-79
2022/03/30 07:40:21;;;;;;;26.33;13.15;;;;;;;19.75;28.35;97416.75;4492595;31;20141;-78
2022/03/30 07:42:48;;;;;;;29.83;13.35;;;;;;;19.73;28.92;97422.28;4495306;31;20813;-79
2022/03/30 07:45:15;;;;;;;24.83;13.93;;;;;;;19.63;29.33;97417.13;4491095;31;20126;-77
2022/03/30 07:47:40;;;;;;;28.83;13.48;;;;;;;19.60;29.63;97414.78;4461585;32;20463;-76
2022/03/30 07:50:07;;;;;;;29.23;13.30;;;;;;;19.61;29.67;97415.63;4477275;31;20103;-75
2022/03/30 07:52:32;;;;;;;25.23;12.37;;;;;;;19.95;29.83;97415.31;4486684;31;20506;-76
2022/03/30 07:54:58;;;;;;;28.48;13.48;;;;;;;20.25;28.85;97422.63;4490492;31;20092;-83
2022/03/30 07:57:26;;;;;;;24.23;12.43;;;;;;;20.19;28.87;97413.47;4488558;31;20096;-86
2022/03/30 07:59:58;;;;;;;24.80;12.20;;;;;;;20.04;28.75;97430.25;4495041;31;20489;-82
2022/03/30 08:02:25;;;;;;;25.30;13.85;;;;;;;20.14;28.62;97432.72;4468296;31;20080;-76
2022/03/30 08:04:51;;;;;;;22.98;12.65;;;;;;;20.42;28.37;97430.34;4494046;31;20088;-79
2022/03/30 08:07:18;;;;;;;26.83;12.20;;;;;;;20.66;28.17;97427.66;4491726;31;20451;-86
2022/03/30 08:09:44;;;;;;;23.55;12.13;;;;;;;20.81;27.25;97437.38;4479698;31;20134;-86
2022/03/30 08:12:14;;;;;;;22.58;12.20;;;;;;;20.72;27.29;97434.97;4493839;31;20088;-80
2022/03/30 08:14:41;;;;;;;24.42;12.37;;;;;;;21.05;27.26;97437.31;4492269;31;20110;-80
2022/03/30 08:17:07;;;;;;;25.12;12.68;;;;;;;20.95;26.87;97440.28;4488934;31;20164;-79
2022/03/30 08:19:32;;;;;;;24.23;11.73;;;;;;;20.94;26.94;97435.94;4493482;31;20100;-80
2022/03/30 08:24:46;;;;;;;25.05;11.70;;;;;;;20.96;27.35;97448.13;4490149;31;20222;-75
2022/03/30 08:27:15;;;;;;;26.75;12.73;;;;;;;20.96;26.94;97450.81;4492508;31;20126;-75
2022/03/30 08:29:40;;;;;;;23.98;12.60;;;;;;;21.05;26.84;97451.53;4494123;31;20118;-76
2022/03/30 08:32:06;;;;;;;23.70;12.52;;;;;;;21.02;26.80;97451.91;4492850;31;20108;-75
2022/03/30 08:34:31;;;;;;;24.02;12.80;;;;;;;21.18;26.94;97445.56;4488570;31;20095;-81
2022/03/30 08:36:58;;;;;;;26.20;12.57;;;;;;;21.31;26.98;97439.56;4487279;31;20170;-75
2022/03/30 08:39:24;;;;;;;23.33;12.32;;;;;;;21.25;26.74;97443.81;4486587;31;20111;-75
2022/03/30 08:41:49;;;;;;;28.65;13.07;;;;;;;21.25;26.73;97449.16;4472544;32;20383;-76
2022/03/30 08:44:17;;;;;;;26.08;13.07;;;;;;;21.40;26.34;97447.31;4486534;32;20115;-75
2022/03/30 08:46:45;;;;;;;22.15;12.55;;;;;;;21.46;26.49;97453.81;4472321;32;20120;-76
2022/03/30 08:49:10;;;;;;;24.08;12.73;;;;;;;21.49;26.51;97453.44;4475414;31;20127;-75
2022/03/30 08:51:38;;;;;;;24.73;12.23;;;;;;;21.71;26.60;97458.84;4503034;31;20084;-76
2022/03/30 08:54:04;;;;;;;27.25;13.35;;;;;;;21.82;26.23;97454.87;4486471;31;20099;-75
2022/03/30 08:56:30;;;;;;;25.77;12.10;;;;;;;21.84;25.97;97467.06;4465547;32;20123;-76
2022/03/30 08:59:06;;;;;;;26.17;14.03;;;;;;;21.75;25.92;97458.31;4490976;31;20060;-75
2022/03/30 09:01:33;;;;;;;24.25;12.18;;;;;;;21.67;25.78;97450.38;4487680;31;20171;-75
2022/03/30 09:04:01;;;;;;;23.38;12.18;;;;;;;21.69;25.54;97459.06;4488337;31;20075;-74
2022/03/30 09:06:42;;;;;;;25.70;12.13;;;;;;;21.83;25.49;97454.69;4488155;31;20112;-76
2022/03/30 09:09:08;;;;;;;31.55;13.35;;;;;;;21.78;25.98;97449.88;4487998;31;20103;-77
2022/03/30 09:11:56;;;;;;;27.15;13.45;;;;;;;21.90;26.37;97450.22;4501529;31;20355;-75
2022/03/30 09:14:26;;;;;;;29.70;13.57;;;;;;;21.90;26.46;97444.84;4475113;31;20081;-76
2022/03/30 09:16:57;;;;;;;27.83;14.00;;;;;;;21.93;26.33;97449.84;4472573;32;20108;-75
2022/03/30 09:19:23;;;;;;;25.12;12.85;;;;;;;22.14;25.95;97441.00;4484081;32;20459;-78
2022/03/30 09:21:58;;;;;;;27.73;13.77;;;;;;;22.06;26.38;97441.13;4496182;31;20123;-75
2022/03/30 09:24:29;;;;;;;27.85;12.77;;;;;;;22.08;26.24;97446.28;4488591;31;20088;-78
2022/03/30 09:26:56;;;;;;;26.90;13.60;;;;;;;21.94;26.22;97443.50;4486018;31;20097;-75
2022/03/30 09:29:23;;;;;;;23.55;12.63;;;;;;;21.98;26.05;97434.03;4471821;32;20123;-75
2022/03/30 09:31:49;;;;;;;25.67;13.98;;;;;;;22.04;26.12;97432.44;4486020;31;20088;-75
2022/03/30 09:34:15;;;;;;;27.40;13.30;;;;;;;22.08;26.30;97436.41;4478734;32;20123;-74
2022/03/30 09:36:41;;;;;;;23.52;12.68;;;;;;;21.99;26.18;97441.06;4489582;31;20155;-74
2022/03/30 09:39:09;;;;;;;26.03;14.03;;;;;;;22.16;25.90;97424.72;4493898;31;20084;-75
2022/03/30 09:41:49;;;;;;;27.90;13.93;;;;;;;22.32;26.08;97429.03;4487632;31;20087;-73
2022/03/30 09:44:16;;;;;;;27.02;13.02;;;;;;;22.35;25.92;97434.03;4501839;31;20103;-74
2022/03/30 09:46:58;;;;;;;25.70;13.60;;;;;;;22.37;26.20;97429.31;4487398;31;20164;-75
2022/03/30 09:49:47;;;;;;;25.80;13.35;;;;;;;22.40;26.02;97423.53;4487284;31;20772;-76
2022/03/30 09:52:24;;;;;;;29.45;13.93;;;;;;;22.45;25.96;97415.75;4487339;31;20143;-75
2022/03/30 09:54:58;;;;;;;35.38;14.20;;;;;;;22.51;26.01;97409.59;4483454;32;20088;-79
2022/03/30 09:57:40;;;;;;;25.70;13.10;;;;;;;22.35;26.28;97407.22;4484837;32;20124;-79
2022/03/30 10:00:06;;;;;;;25.33;13.18;;;;;;;22.30;26.24;97407.75;4484813;32;20158;-81
2022/03/30 10:02:34;;;;;;;25.25;13.05;;;;;;;22.23;26.40;97403.31;4493580;31;20084;-79
2022/03/30 10:05:00;;;;;;;25.25;13.27;;;;;;;22.32;26.41;97403.03;4487049;31;20079;-81
2022/03/30 10:07:28;;;;;;;23.55;13.05;;;;;;;22.43;26.45;97393.66;4502074;31;20575;-81
2022/03/30 10:09:53;;;;;;;27.98;13.98;;;;;;;22.53;26.14;97396.81;4487194;31;20087;-79
2022/03/30 10:12:19;;;;;;;27.92;12.77;;;;;;;22.43;26.17;97395.50;4498889;31;20152;-80
2022/03/30 10:14:46;;;;;;;24.85;13.88;;;;;;;22.51;26.52;97398.88;4493090;31;20198;-79
2022/03/30 10:17:13;;;;;;;25.77;13.65;;;;;;;22.48;26.50;97393.06;4485765;31;20479;-79
2022/03/30 10:19:42;;;;;;;23.38;12.45;;;;;;;22.56;26.34;97392.91;4472111;32;20127;-79
2022/03/30 10:22:43;;;;;;;27.35;13.00;;;;;;;22.67;26.37;97395.06;4485959;32;20100;-79
2022/03/30 10:25:26;;;;;;;26.35;13.13;;;;;;;22.71;26.43;97388.28;4406036;32;20156;-79
2022/03/30 10:28:18;;;;;;;29.55;13.55;;;;;;;22.66;26.48;97389.91;4401598;32;20159;-80
2022/03/30 10:30:44;;;;;;;24.48;11.27;;;;;;;22.60;26.57;97394.22;4360154;32;20138;-80
2022/03/30 10:33:10;;;;;;;22.83;12.65;;;;;;;22.70;26.72;97392.00;4360296;32;20644;-84
2022/03/30 10:35:47;;;;;;;23.00;12.13;;;;;;;22.54;26.85;97384.22;4361330;32;20145;-81
2022/03/30 10:38:15;;;;;;;25.05;12.80;;;;;;;22.72;26.65;97378.41;4360844;32;20587;-81
2022/03/30 10:40:40;;;;;;;;;;;;;;;22.84;26.23;97367.94;4362100;32;20141;-81
2022/03/30 10:43:14;;;;;;;22.70;12.27;;;;;;;22.85;26.25;97373.13;4362406;32;20020;-82
2022/03/30 10:45:56;;;;;;;20.88;11.45;;;;;;;22.69;26.65;97373.41;4362657;32;20095;-79
2022/03/30 10:48:42;;;;;;;21.35;11.80;;;;;;;22.61;27.00;97368.19;4363282;32;20521;-80
2022/03/30 10:51:18;;;;;;;20.75;11.25;;;;;;;22.66;27.10;97374.62;4359060;32;20275;-81
2022/03/30 10:53:50;;;;;;;21.80;11.55;;;;;;;22.69;27.21;97376.91;4359131;32;20095;-79
2022/03/30 10:56:16;;;;;;;21.62;11.43;;;;;;;22.65;27.09;97372.13;4360323;32;20099;-85
2022/03/30 10:58:55;;;;;;;22.17;10.82;;;;;;;22.65;27.32;97366.78;4362140;32;20157;-85
2022/03/30 11:01:28;;;;;;;21.30;11.20;;;;;;;22.73;27.48;97363.94;4380900;32;20519;-91
2022/03/30 11:04:06;;;;;;;22.98;10.27;;;;;;;22.66;27.61;97360.41;4426124;32;20093;-85
2022/03/30 11:06:34;;;;;;;;;;;;;;;22.68;27.65;97363.72;4435908;32;20288;-91
2022/03/30 11:09:01;;;;;;;23.20;11.15;;;;;;;22.71;27.33;97356.06;4483102;32;20059;-86
2022/03/30 11:11:30;;;;;;;22.92;10.93;;;;;;;22.66;27.03;97352.34;4487440;31;20092;-77
2022/03/30 11:14:23;;;;;;;23.08;11.07;;;;;;;22.54;27.52;97354.69;4493418;31;20242;-77
2022/03/30 11:16:52;;;;;;;24.42;10.65;;;;;;;22.54;27.06;97352.88;4497709;31;20084;-81
2022/03/30 11:19:18;;;;;;;18.85;10.27;;;;;;;22.45;27.35;97348.66;4476325;31;20458;-78
2022/03/30 11:21:52;;;;;;;22.30;9.85;;;;;;;22.50;27.18;97340.03;4494294;31;20118;-79
2022/03/30 11:24:19;;;;;;;18.48;9.95;;;;;;;22.76;26.82;97331.34;4476900;31;20104;-79
2022/03/30 11:26:47;;;;;;;18.25;9.63;;;;;;;22.80;26.64;97334.47;4491810;31;20095;-80
2022/03/30 11:29:41;;;;;;;22.95;10.10;;;;;;;22.82;26.67;97327.84;4494241;31;20096;-79
2022/03/30 11:32:19;;;;;;;17.87;9.88;;;;;;;22.86;26.77;97326.44;4501537;31;20116;-81
2022/03/30 11:34:50;;;;;;;62.95;13.95;;;;;;;22.94;26.69;97315.53;4490436;31;20080;-78